Time;durP1;ratioP1;P1;durP2;ratioP2;P2;SDS_P1;SDS_P2;PMS_P1;PMS_P2;Temp;Humidity;BMP_temperature;BMP_pressure;BME280_temperature;BME280_humidity;BME280_pressure;Samples;Min_cycle;Max_cycle;Signal;HPM_P1;HPM_P2
2021/12/18 00:01:15;;;;;;;;;;;;;;;4.32;61.29;101701.50;5383203;32;35600;-63
2021/12/18 00:04:17;;;;;;;9.53;3.70;;;;;;;4.10;62.22;101698.69;5400722;32;36824;-62
2021/12/18 00:07:20;;;;;;;9.17;3.80;;;;;;;4.20;61.66;101700.53;5414123;32;34919;-62
2021/12/18 00:10:23;;;;;;;8.03;3.37;;;;;;;4.16;61.29;101703.97;5399151;32;35313;-62
2021/12/18 00:13:26;;;;;;;9.93;3.80;;;;;;;4.29;61.10;101711.00;5398135;32;34911;-61
2021/12/18 00:16:28;;;;;;;8.77;3.63;;;;;;;4.22;60.99;101706.62;5413032;32;34328;-62
2021/12/18 00:19:32;;;;;;;;;;;;;;;4.03;61.94;101711.66;5426356;32;33246;-62
2021/12/18 00:22:34;;;;;;;10.00;3.30;;;;;;;3.98;62.13;101717.69;5470885;32;34826;-62
2021/12/18 00:25:37;;;;;;;10.70;3.87;;;;;;;4.10;61.72;101693.50;5439697;32;34900;-62
2021/12/18 00:28:40;;;;;;;11.07;4.40;;;;;;;4.05;62.52;101703.84;5438435;32;34603;-62
2021/12/18 00:31:42;;;;;;;9.33;3.53;;;;;;;3.86;62.93;101699.34;5454198;32;35240;-62
2021/12/18 00:34:45;;;;;;;9.93;4.13;;;;;;;4.03;62.00;101697.78;5450582;32;35434;-62
2021/12/18 00:37:47;;;;;;;8.77;3.83;;;;;;;4.12;61.63;101713.47;5430513;32;33112;-62
2021/12/18 00:41:11;;;;;;;8.43;4.07;;;;;;;4.14;61.92;101706.56;5454145;32;34598;-62
2021/12/18 00:44:13;;;;;;;10.70;3.87;;;;;;;4.21;61.85;101690.13;5448950;32;33067;-62
2021/12/18 00:47:16;;;;;;;10.15;3.85;;;;;;;4.16;62.01;101696.16;5450294;32;34796;-61
2021/12/18 00:50:23;;;;;;;13.37;4.60;;;;;;;3.99;62.39;101689.09;5455622;32;33397;-62
2021/12/18 00:53:25;;;;;;;13.63;3.90;;;;;;;3.87;63.18;101702.00;5454974;32;33919;-62
2021/12/18 00:56:27;;;;;;;9.83;4.33;;;;;;;4.23;62.10;101701.41;5451310;32;33991;-61
2021/12/18 00:59:35;;;;;;;11.67;4.10;;;;;;;4.30;61.59;101700.59;5450370;32;34751;-61
2021/12/18 01:02:44;;;;;;;13.00;4.77;;;;;;;3.86;63.26;101705.41;5448860;32;32623;-62
2021/12/18 01:05:48;;;;;;;12.93;4.37;;;;;;;4.10;62.68;101702.19;5434776;32;34649;-62
2021/12/18 01:08:56;;;;;;;11.07;4.67;;;;;;;3.74;64.15;101715.72;5432009;32;34693;-62
2021/12/18 01:11:59;;;;;;;12.70;4.30;;;;;;;3.80;64.13;101705.41;5454752;32;35000;-62
2021/12/18 01:15:51;;;;;;;;;;;;;;;4.24;63.15;101702.28;5455886;32;34005;-63
2021/12/18 01:25:26;;;;;;;12.77;4.83;;;;;;;3.84;64.71;101727.09;5416417;32;33856;-62
2021/12/18 01:28:31;;;;;;;;;;;;;;;3.97;64.22;101716.81;5434292;32;33880;-62
2021/12/18 01:31:34;;;;;;;11.00;4.37;;;;;;;4.14;64.26;101710.91;5438698;32;33715;-62
2021/12/18 01:34:37;;;;;;;12.67;4.83;;;;;;;4.17;63.77;101731.72;5453455;32;33978;-61
2021/12/18 01:37:43;;;;;;;14.83;5.80;;;;;;;3.80;65.43;101741.81;5443319;32;34120;-62
2021/12/18 01:40:46;;;;;;;15.07;5.03;;;;;;;4.28;64.23;101750.91;5459266;32;35112;-61
2021/12/18 01:53:40;;;;;;;12.13;4.87;;;;;;;4.13;63.53;101746.44;5454760;32;35217;-61
2021/12/18 01:56:44;;;;;;;11.87;4.80;;;;;;;3.98;64.65;101754.09;5447687;32;34062;-62
2021/12/18 01:59:48;;;;;;;11.87;4.93;;;;;;;4.18;63.53;101749.06;5440816;32;32480;-61
2021/12/18 02:02:50;;;;;;;13.13;5.47;;;;;;;3.85;65.16;101753.09;5429526;32;34533;-61
2021/12/18 02:05:55;;;;;;;11.50;4.90;;;;;;;3.60;65.95;101751.09;5438297;32;34115;-64
2021/12/18 02:08:59;;;;;;;10.23;4.37;;;;;;;3.79;65.31;101758.22;5438091;32;33960;-62
2021/12/18 02:12:04;;;;;;;12.23;5.47;;;;;;;3.98;64.88;101760.16;5446484;32;35395;-62
2021/12/18 02:21:49;;;;;;;12.13;5.27;;;;;;;4.40;62.74;101773.56;5449510;32;32825;-62
2021/12/18 02:24:52;;;;;;;13.20;5.83;;;;;;;4.57;62.38;101767.66;5440042;32;35063;-62
2021/12/18 02:27:56;;;;;;;13.98;5.28;;;;;;;4.12;63.67;101778.50;5448768;32;34602;-62
2021/12/18 02:30:59;;;;;;;13.05;5.07;;;;;;;4.23;63.84;101783.81;5446806;32;32920;-61
2021/12/18 02:34:04;;;;;;;17.55;6.28;;;;;;;4.00;64.32;101778.41;5450395;32;34586;-62
2021/12/18 02:37:11;;;;;;;13.23;5.23;;;;;;;3.63;65.85;101780.62;5448785;32;34099;-62
2021/12/18 02:43:49;;;;;;;13.13;5.10;;;;;;;4.32;63.54;101794.34;5439450;32;32935;-63
2021/12/18 02:46:51;;;;;;;12.87;5.03;;;;;;;3.84;64.79;101799.91;5441367;32;35222;-63
2021/12/18 02:49:56;;;;;;;13.90;5.07;;;;;;;3.69;65.31;101805.81;5437882;32;34012;-63
2021/12/18 02:52:59;;;;;;;11.90;5.10;;;;;;;3.78;65.31;101806.78;5441202;32;36038;-63
2021/12/18 02:56:05;;;;;;;12.43;5.10;;;;;;;3.62;65.85;101799.66;5437067;32;34096;-62
2021/12/18 02:59:10;;;;;;;13.53;5.23;;;;;;;3.69;65.73;101796.28;5448855;32;35096;-62
2021/12/18 03:02:13;;;;;;;14.17;5.33;;;;;;;3.75;64.79;101790.28;5437014;32;33865;-62
2021/12/18 03:05:22;;;;;;;12.23;5.25;;;;;;;3.96;64.46;101779.22;5448886;32;32937;-62
2021/12/18 03:08:39;;;;;;;12.20;5.23;;;;;;;3.68;64.79;101778.06;5436252;32;33206;-62
2021/12/18 03:25:22;;;;;;;11.23;4.40;;;;;;;3.85;63.02;101812.06;5455525;32;35091;-62
2021/12/18 03:28:27;;;;;;;9.00;4.10;;;;;;;3.76;62.99;101821.50;5455018;32;33816;-63
2021/12/18 03:31:33;;;;;;;10.90;4.00;;;;;;;4.20;61.36;101823.72;5445883;32;34217;-62
2021/12/18 03:34:36;;;;;;;9.37;4.20;;;;;;;3.94;61.78;101817.38;5431937;32;34772;-63
2021/12/18 03:37:40;;;;;;;12.88;5.00;;;;;;;4.44;59.60;101817.84;5445657;32;32351;-63
2021/12/18 03:40:45;;;;;;;9.60;4.10;;;;;;;4.11;60.05;101831.41;5448934;32;34116;-63
2021/12/18 03:43:48;;;;;;;10.70;4.20;;;;;;;4.72;58.26;101836.34;5425594;32;34449;-62
2021/12/18 03:46:51;;;;;;;12.57;4.40;;;;;;;4.58;58.86;101838.81;5450718;32;33347;-62
2021/12/18 03:49:54;;;;;;;9.33;4.13;;;;;;;4.24;59.85;101830.69;5440722;32;33973;-62
2021/12/18 03:52:56;;;;;;;12.83;4.00;;;;;;;4.62;59.23;101828.41;5460819;32;34632;-62
2021/12/18 03:56:00;;;;;;;10.33;4.37;;;;;;;4.51;58.91;101824.88;5431547;32;36122;-63
2021/12/18 03:59:03;;;;;;;9.47;4.00;;;;;;;4.00;60.37;101841.72;5453897;32;35075;-62
2021/12/18 04:02:07;;;;;;;10.23;3.87;;;;;;;4.58;58.79;101846.63;5449874;32;34414;-62
2021/12/18 04:05:15;;;;;;;13.13;4.90;;;;;;;4.37;59.65;101849.00;5442884;32;34056;-63
2021/12/18 04:08:19;;;;;;;11.63;4.10;;;;;;;4.25;59.88;101848.06;5459713;32;33608;-62
2021/12/18 04:11:21;;;;;;;8.53;3.83;;;;;;;4.04;59.65;101840.88;5428471;32;32964;-62
2021/12/18 04:14:25;;;;;;;11.07;4.32;;;;;;;4.35;59.59;101821.25;5447122;32;34492;-62
2021/12/18 04:17:29;;;;;;;9.87;4.13;;;;;;;3.91;60.34;101817.31;5443665;32;33221;-63
2021/12/18 04:20:32;;;;;;;9.67;4.00;;;;;;;4.54;59.04;101811.88;5453050;32;34954;-62
2021/12/18 04:23:35;;;;;;;13.00;4.33;;;;;;;4.45;59.27;101811.81;5466631;32;34438;-62
2021/12/18 04:26:38;;;;;;;12.13;4.53;;;;;;;4.85;58.15;101819.94;5455128;32;35007;-62
2021/12/18 04:29:41;;;;;;;12.82;4.93;;;;;;;4.49;58.69;101825.69;5443101;32;34550;-62
2021/12/18 04:32:46;;;;;;;11.07;3.90;;;;;;;5.07;57.40;101839.19;5428763;32;34617;-62
2021/12/18 04:35:49;;;;;;;10.67;4.60;;;;;;;4.97;57.12;101847.81;5459415;32;34028;-64
2021/12/18 04:38:51;;;;;;;14.10;4.40;;;;;;;5.00;56.98;101847.81;5440947;32;34217;-63
2021/12/18 04:41:57;;;;;;;12.60;4.50;;;;;;;4.01;59.21;101853.00;5455442;32;34596;-63
2021/12/18 04:45:00;;;;;;;10.87;4.23;;;;;;;4.99;57.35;101864.31;5449928;32;33117;-61
2021/12/18 04:48:03;;;;;;;11.67;4.40;;;;;;;4.55;58.04;101865.69;5449313;32;33239;-61
2021/12/18 04:51:09;;;;;;;11.02;4.70;;;;;;;4.38;59.09;101866.38;5463260;32;33122;-62
2021/12/18 04:54:12;;;;;;;10.87;4.00;;;;;;;4.06;58.90;101882.56;5435797;32;34902;-63
2021/12/18 04:57:16;;;;;;;7.22;3.55;;;;;;;4.11;59.25;101893.84;5444327;32;32906;-62
2021/12/18 05:00:20;;;;;;;12.47;4.13;;;;;;;3.73;60.55;101903.78;5464156;32;33954;-61
2021/12/18 05:03:24;;;;;;;12.60;4.27;;;;;;;4.54;57.79;101902.13;5450159;32;32918;-62
2021/12/18 05:06:29;;;;;;;11.77;4.70;;;;;;;4.07;58.72;101908.59;5450304;32;35004;-62
2021/12/18 05:09:32;;;;;;;11.17;4.73;;;;;;;3.80;60.23;101905.66;5454463;32;33880;-62
2021/12/18 05:12:37;;;;;;;9.67;4.67;;;;;;;3.84;59.95;101911.75;5442993;32;34327;-63
2021/12/18 05:15:39;;;;;;;12.65;4.55;;;;;;;4.06;60.01;101917.25;5467026;32;33781;-62
2021/12/18 05:18:42;;;;;;;15.77;4.87;;;;;;;4.77;57.53;101924.06;5455873;32;33024;-62
2021/12/18 05:21:45;;;;;;;14.13;4.90;;;;;;;4.72;57.83;101925.75;5451554;32;33989;-61
2021/12/18 05:24:47;;;;;;;15.27;5.37;;;;;;;5.27;56.55;101931.41;5437827;32;34090;-61
2021/12/18 05:27:52;;;;;;;11.93;4.23;;;;;;;5.33;55.73;101930.59;5447078;32;34052;-63
2021/12/18 05:30:55;;;;;;;15.03;4.97;;;;;;;4.75;57.97;101935.31;5428295;32;34453;-62
2021/12/18 05:34:01;;;;;;;11.87;5.70;;;;;;;4.06;59.95;101932.00;5444745;32;34212;-63
2021/12/18 05:40:23;;;;;;;12.40;4.90;;;;;;;5.42;56.07;101931.53;5461988;32;34862;-62
2021/12/18 05:43:25;;;;;;;13.30;4.60;;;;;;;4.01;58.79;101924.13;5463979;32;33213;-62
2021/12/18 05:46:28;;;;;;;11.00;4.77;;;;;;;4.89;56.79;101937.22;5456123;32;35200;-63
2021/12/18 05:49:36;;;;;;;10.17;4.57;;;;;;;4.34;57.96;101936.66;5447937;32;33033;-63
2021/12/18 05:52:40;;;;;;;12.33;4.00;;;;;;;4.26;57.90;101940.03;5432097;32;34364;-63
2021/12/18 05:55:43;;;;;;;11.67;4.70;;;;;;;5.12;55.80;101946.94;5461505;32;33336;-62
2021/12/18 05:58:47;;;;;;;9.65;4.03;;;;;;;3.82;58.99;101961.16;5452696;32;34406;-62
2021/12/18 06:01:55;;;;;;;11.20;4.20;;;;;;;3.81;59.41;101964.63;5455935;32;35558;-63
2021/12/18 06:04:57;;;;;;;10.67;4.73;;;;;;;4.04;58.42;101957.97;5461167;32;33999;-63
2021/12/18 06:08:03;;;;;;;11.00;4.60;;;;;;;4.73;56.70;101957.88;5435860;32;34166;-63
2021/12/18 06:11:16;;;;;;;10.50;4.20;;;;;;;4.19;57.60;101951.22;5459797;32;34227;-63
2021/12/18 06:14:22;;;;;;;9.98;4.43;;;;;;;4.48;57.19;101967.16;5445683;32;35075;-62
2021/12/18 06:17:26;;;;;;;10.63;4.60;;;;;;;4.57;56.98;101967.25;5431512;32;34719;-63
2021/12/18 06:20:30;;;;;;;10.93;4.60;;;;;;;3.95;58.12;101972.59;5435823;32;33995;-62
2021/12/18 06:23:37;;;;;;;17.10;7.27;;;;;;;4.72;56.53;101966.56;5447180;32;33937;-61
2021/12/18 06:26:44;;;;;;;14.53;4.83;;;;;;;4.60;56.71;101977.72;5437551;32;34146;-62
2021/12/18 06:29:51;;;;;;;11.93;4.60;;;;;;;4.29;56.79;101976.50;5435149;32;32967;-63
2021/12/18 06:32:54;;;;;;;9.07;4.23;;;;;;;3.87;58.22;101972.50;5446241;32;35203;-63
2021/12/18 06:35:57;;;;;;;12.83;4.50;;;;;;;4.78;55.55;101982.25;5462178;32;32856;-63
2021/12/18 06:39:02;;;;;;;10.97;3.80;;;;;;;4.39;56.83;101985.28;5443292;32;33102;-62
2021/12/18 06:42:07;;;;;;;10.53;4.50;;;;;;;4.34;56.27;101977.44;5448849;32;33950;-63
2021/12/18 06:45:12;;;;;;;;;;;;;;;4.38;56.43;102001.75;5458768;32;33764;-63
2021/12/18 06:48:15;;;;;;;13.70;4.20;;;;;;;4.48;56.32;101998.41;5455956;32;32918;-62
2021/12/18 06:51:20;;;;;;;12.13;4.17;;;;;;;3.97;57.42;102004.69;5433006;32;34960;-63
2021/12/18 06:54:26;;;;;;;15.67;4.07;;;;;;;3.92;57.25;102016.75;5435453;32;35547;-62
2021/12/18 06:57:30;;;;;;;10.40;4.17;;;;;;;3.66;58.41;102026.78;5462472;32;33676;-61
2021/12/18 07:00:35;;;;;;;12.90;4.17;;;;;;;3.79;58.60;102024.38;5452402;32;34023;-62
2021/12/18 07:03:40;;;;;;;11.43;3.97;;;;;;;3.69;58.66;102019.91;5455232;32;34343;-62
2021/12/18 07:06:46;;;;;;;12.60;4.67;;;;;;;4.56;56.00;102010.66;5429466;32;34299;-64
2021/12/18 07:09:53;;;;;;;15.20;3.87;;;;;;;3.91;57.81;102005.47;5448451;32;34136;-63
2021/12/18 07:13:10;;;;;;;10.33;4.10;;;;;;;4.01;57.04;102001.31;5443146;32;35120;-64
2021/12/18 07:16:19;;;;;;;12.03;4.77;;;;;;;3.77;58.16;102013.09;5431863;32;33732;-63
2021/12/18 07:19:22;;;;;;;9.37;4.20;;;;;;;3.69;57.84;102003.44;5458376;32;34704;-62
2021/12/18 07:22:24;;;;;;;10.30;4.03;;;;;;;4.30;56.27;102002.53;5428649;32;34848;-63
2021/12/18 07:25:28;;;;;;;12.00;4.80;;;;;;;4.37;55.83;102000.00;5459871;32;34064;-62
2021/12/18 07:28:31;;;;;;;;;;;;;;;4.91;55.01;101994.53;5437847;32;34424;-63
2021/12/18 07:31:33;;;;;;;8.80;4.17;;;;;;;4.05;56.84;101998.72;5446308;32;34655;-63
2021/12/18 07:34:36;;;;;;;8.98;3.58;;;;;;;4.36;56.58;102014.75;5447346;32;34482;-63
2021/12/18 07:37:39;;;;;;;13.10;4.45;;;;;;;3.92;56.93;102016.75;5434008;32;33774;-63
2021/12/18 07:40:43;;;;;;;10.20;3.85;;;;;;;3.96;57.55;102023.78;5451802;32;33494;-62
2021/12/18 07:43:45;;;;;;;10.53;4.37;;;;;;;4.13;56.37;102024.88;5441188;32;34526;-62
2021/12/18 07:46:50;;;;;;;13.90;4.60;;;;;;;4.12;57.10;102027.44;5459112;32;34787;-63
2021/12/18 07:49:55;;;;;;;10.77;3.80;;;;;;;4.66;55.00;102029.87;5443647;32;33226;-62
2021/12/18 07:52:58;;;;;;;11.40;4.00;;;;;;;3.83;57.19;102034.84;5455831;32;34311;-63
2021/12/18 07:56:01;;;;;;;7.27;3.60;;;;;;;4.04;56.68;102042.94;5448816;32;35485;-63
2021/12/18 07:59:04;;;;;;;11.52;3.70;;;;;;;3.85;56.90;102057.41;5438749;32;33246;-61
2021/12/18 08:02:10;;;;;;;14.60;4.37;;;;;;;3.95;56.70;102064.53;5438102;32;34036;-62
2021/12/18 08:05:19;;;;;;;10.33;4.33;;;;;;;4.26;56.12;102038.94;5437448;32;34143;-64
2021/12/18 08:08:23;;;;;;;8.82;3.70;;;;;;;4.98;54.46;102032.81;5448471;32;34262;-62
2021/12/18 08:11:32;;;;;;;10.73;4.03;;;;;;;4.33;55.99;102038.16;5432495;32;35825;-62
2021/12/18 08:14:37;;;;;;;9.63;4.00;;;;;;;4.45;55.68;102043.53;5438746;32;33181;-62
2021/12/18 08:17:42;;;;;;;12.52;4.18;;;;;;;4.16;57.17;102037.06;5439169;32;34464;-62
2021/12/18 08:20:45;;;;;;;14.57;4.87;;;;;;;4.60;55.33;102041.09;5430546;32;34063;-62
2021/12/18 08:23:47;;;;;;;9.27;4.13;;;;;;;5.18;54.35;102038.22;5439757;32;33099;-63
2021/12/18 08:26:50;;;;;;;10.17;4.23;;;;;;;4.63;54.92;102042.84;5439203;32;35405;-63
2021/12/18 08:29:52;;;;;;;13.83;5.23;;;;;;;4.51;55.81;102043.59;5452547;32;34101;-62
2021/12/18 08:32:56;;;;;;;11.97;4.63;;;;;;;4.63;55.30;102046.31;5447014;32;34060;-62
2021/12/18 08:35:59;;;;;;;;;;;;;;;5.39;53.74;102030.59;5442985;32;33141;-63
2021/12/18 08:39:01;;;;;;;14.43;4.07;;;;;;;4.96;54.44;102028.44;5463192;32;34527;-63
2021/12/18 08:42:06;;;;;;;13.38;4.18;;;;;;;5.14;54.33;102037.31;5441912;32;34490;-62
2021/12/18 08:45:19;;;;;;;12.97;4.37;;;;;;;4.80;54.99;102033.50;5440181;32;35342;-63
2021/12/18 08:48:23;;;;;;;23.20;6.13;;;;;;;5.16;54.66;102030.41;5447062;32;34637;-64
2021/12/18 08:51:26;;;;;;;20.17;4.90;;;;;;;4.96;55.34;102025.81;5443486;32;34429;-62
2021/12/18 08:54:33;;;;;;;13.63;4.53;;;;;;;4.81;55.08;102023.94;5443765;32;33870;-63
2021/12/18 08:57:44;;;;;;;18.92;5.68;;;;;;;5.15;54.10;102025.16;5430763;32;35861;-63
2021/12/18 09:00:47;;;;;;;13.07;4.47;;;;;;;5.16;54.46;102030.41;5450173;32;34599;-63
2021/12/18 09:03:51;;;;;;;14.55;3.78;;;;;;;4.88;55.31;102026.63;5435276;32;204826;-62
2021/12/18 09:06:55;;;;;;;11.50;4.20;;;;;;;5.18;53.90;102025.19;5427592;32;34273;-62
2021/12/18 09:09:58;;;;;;;14.00;4.87;;;;;;;4.70;55.44;102020.34;5462764;32;33844;-63
2021/12/18 09:13:00;;;;;;;10.17;4.03;;;;;;;4.81;55.14;102019.59;5455269;32;32915;-63
2021/12/18 09:16:03;;;;;;;18.53;4.87;;;;;;;5.47;53.02;102014.13;5450022;32;32988;-64
2021/12/18 09:19:05;;;;;;;14.33;4.33;;;;;;;5.05;54.43;102016.37;5452534;32;34876;-62
2021/12/18 09:22:09;;;;;;;12.97;3.90;;;;;;;4.82;54.56;102018.75;5444780;32;34078;-63
2021/12/18 09:25:12;;;;;;;9.93;4.60;;;;;;;5.13;53.88;102013.84;5447898;32;34417;-62
2021/12/18 09:28:18;;;;;;;11.93;4.77;;;;;;;4.93;54.17;102002.38;5437838;32;33172;-62
2021/12/18 09:31:25;;;;;;;21.93;4.67;;;;;;;4.96;54.33;102007.59;5447888;32;34102;-63
2021/12/18 09:34:30;;;;;;;6.97;2.80;;;;;;;5.00;54.32;102009.37;5440035;32;34796;-62
2021/12/18 09:37:33;;;;;;;12.57;4.90;;;;;;;5.39;52.92;102014.94;5448576;32;33009;-64
2021/12/18 09:40:38;;;;;;;39.60;13.80;;;;;;;5.00;54.18;102011.97;5443438;32;34512;-62
2021/12/18 09:43:41;;;;;;;8.87;3.77;;;;;;;4.92;54.40;102014.53;5442554;32;34282;-62
2021/12/18 09:46:44;;;;;;;13.65;3.83;;;;;;;5.15;53.82;102012.13;5452905;32;34668;-63
2021/12/18 09:49:48;;;;;;;11.13;3.93;;;;;;;5.23;53.53;102007.88;5437471;32;33704;-64
2021/12/18 09:52:51;;;;;;;12.73;4.63;;;;;;;5.08;54.09;102007.72;5447162;32;32628;-62
2021/12/18 09:55:54;;;;;;;15.80;4.33;;;;;;;5.10;53.74;102009.50;5438774;32;34944;-63
2021/12/18 09:58:56;;;;;;;19.63;5.20;;;;;;;4.97;54.38;102012.84;5448840;32;34033;-63
2021/12/18 10:01:58;;;;;;;12.17;4.10;;;;;;;5.12;53.85;102020.78;5456265;32;34596;-64
2021/12/18 10:05:01;;;;;;;10.80;4.47;;;;;;;5.65;52.69;102022.09;5446157;32;34201;-62
2021/12/18 10:08:21;;;;;;;9.83;4.17;;;;;;;5.39;52.84;102034.94;5459218;32;34202;-64
2021/12/18 10:11:25;;;;;;;11.83;3.73;;;;;;;5.85;52.07;102030.06;5440035;32;34289;-63
2021/12/18 10:14:37;;;;;;;12.47;4.47;;;;;;;5.17;53.61;102026.06;5460318;32;34076;-62
2021/12/18 10:17:42;;;;;;;;;;;;;;;5.68;52.86;102023.00;5448222;32;34361;-63
2021/12/18 10:20:46;;;;;;;14.73;5.07;;;;;;;5.88;52.16;102025.75;5455582;32;34867;-63
2021/12/18 10:23:57;;;;;;;13.13;5.30;;;;;;;5.03;53.81;102025.94;5441611;32;34151;-64
2021/12/18 10:27:01;;;;;;;12.17;3.73;;;;;;;5.69;52.65;102019.53;5453943;32;33899;-63
2021/12/18 10:30:16;;;;;;;14.40;4.77;;;;;;;5.96;51.22;102023.19;5454492;32;33890;-63
2021/12/18 10:33:22;;;;;;;9.87;3.90;;;;;;;5.83;51.97;102018.75;5439363;32;32917;-63
2021/12/18 10:36:25;;;;;;;9.67;3.80;;;;;;;5.47;52.24;102001.09;5441090;32;34717;-62
2021/12/18 10:39:27;;;;;;;9.73;3.50;;;;;;;6.01;50.97;101994.53;5457362;32;33317;-63
2021/12/18 10:42:34;;;;;;;8.87;4.00;;;;;;;5.38;52.64;101987.13;5436325;32;32902;-63
2021/12/18 10:45:43;;;;;;;10.40;3.83;;;;;;;5.38;53.34;101996.69;5442929;32;33252;-62
2021/12/18 10:49:17;;;;;;;12.63;4.20;;;;;;;5.78;52.08;101976.09;5454096;32;33934;-63
2021/12/18 10:52:38;;;;;;;11.17;3.83;;;;;;;5.60;52.28;101977.75;5456568;32;34456;-62
2021/12/18 10:56:01;;;;;;;16.43;4.27;;;;;;;6.36;50.05;101982.47;5437326;32;34020;-63
2021/12/18 10:59:24;;;;;;;10.63;3.40;;;;;;;6.73;49.25;101964.31;5421852;32;33805;-63
2021/12/18 11:02:28;;;;;;;10.50;3.70;;;;;;;7.36;47.35;101969.59;5436673;32;34105;-63
2021/12/18 11:05:31;;;;;;;9.17;3.37;;;;;;;6.72;48.99;101968.66;5409396;32;33529;-63
2021/12/18 11:08:38;;;;;;;14.37;5.50;;;;;;;5.90;50.80;101970.94;5427594;32;33899;-63
2021/12/18 11:15:12;;;;;;;14.43;3.40;;;;;;;6.49;49.08;101945.09;5446301;32;34704;-64
2021/12/18 11:18:15;;;;;;;8.27;3.47;;;;;;;7.37;47.52;101937.31;5411710;32;33192;-62
2021/12/18 11:21:19;;;;;;;8.20;3.30;;;;;;;7.29;46.65;101927.75;5435875;32;35212;-63
2021/12/18 11:24:45;;;;;;;8.53;3.13;;;;;;;7.27;47.19;101918.13;5439364;32;34602;-62
2021/12/18 11:27:48;;;;;;;8.73;3.37;;;;;;;7.41;46.86;101903.31;5421652;32;33978;-63
2021/12/18 11:30:51;;;;;;;12.15;3.80;;;;;;;7.17;47.26;101909.44;5441576;32;35105;-63
2021/12/18 11:33:55;;;;;;;8.47;3.03;;;;;;;7.77;46.23;101899.72;5404132;32;34095;-63
2021/12/18 11:36:59;;;;;;;13.67;3.57;;;;;;;7.12;47.18;101910.31;5442868;32;32617;-64
2021/12/18 11:40:04;;;;;;;7.97;3.17;;;;;;;6.65;48.29;101912.03;5425922;32;34157;-61
2021/12/18 11:43:29;;;;;;;12.57;3.47;;;;;;;6.49;48.62;101912.88;5419304;32;34008;-64
2021/12/18 11:46:32;;;;;;;10.80;3.50;;;;;;;6.09;50.00;101911.91;5438180;32;34023;-62
2021/12/18 11:49:44;;;;;;;7.97;2.57;;;;;;;6.58;48.70;101912.91;5445737;32;35301;-63
2021/12/18 11:53:12;;;;;;;21.63;4.07;;;;;;;7.04;47.78;101899.88;5430144;32;34092;-63
2021/12/18 11:56:17;;;;;;;7.10;2.97;;;;;;;7.21;47.49;101895.50;5432664;32;34948;-62
2021/12/18 11:59:51;;;;;;;8.43;3.37;;;;;;;7.19;47.72;101910.31;5435315;32;33931;-63
2021/12/18 12:02:59;;;;;;;28.30;5.10;;;;;;;7.08;47.96;101893.75;5404003;32;33198;-63
2021/12/18 12:06:35;;;;;;;8.57;3.77;;;;;;;6.77;48.80;101888.53;5444221;32;34015;-63
2021/12/18 12:09:55;;;;;;;8.07;3.40;;;;;;;6.57;49.17;101897.22;5430079;32;33510;-64
2021/12/18 12:13:01;;;;;;;11.23;3.67;;;;;;;6.51;49.68;101898.97;5435915;32;32945;-63
2021/12/18 12:16:07;;;;;;;10.53;3.47;;;;;;;6.13;50.84;101898.00;5452037;32;34745;-63
2021/12/18 12:19:21;;;;;;;12.18;3.90;;;;;;;7.28;47.87;101888.53;5437406;32;34115;-62
2021/12/18 12:22:36;;;;;;;11.97;3.87;;;;;;;6.62;49.58;101891.13;5442789;32;34168;-62
2021/12/18 12:25:49;;;;;;;10.30;3.37;;;;;;;7.33;48.26;101894.59;5452660;32;33001;-63
2021/12/18 12:28:53;;;;;;;12.97;4.93;;;;;;;7.14;48.68;101898.09;5435897;32;32766;-63
2021/12/18 12:32:06;;;;;;;11.93;4.00;;;;;;;7.14;48.90;101898.97;5449149;32;34075;-62
2021/12/18 12:35:16;;;;;;;8.37;3.77;;;;;;;6.17;51.80;101898.00;5438739;32;34380;-63
2021/12/18 12:38:28;;;;;;;8.30;3.40;;;;;;;6.99;50.03;101893.75;5434879;32;34427;-63
2021/12/18 12:41:48;;;;;;;9.83;3.77;;;;;;;6.74;50.55;101898.09;5450009;32;33060;-63
2021/12/18 12:45:02;;;;;;;8.53;3.70;;;;;;;5.83;52.29;101893.50;5452446;32;33031;-63
2021/12/18 12:48:10;;;;;;;9.20;3.63;;;;;;;6.75;50.25;101887.66;5454080;32;33132;-62
2021/12/18 12:51:13;;;;;;;9.53;3.63;;;;;;;6.46;50.50;101879.78;5442124;32;32704;-63
2021/12/18 12:54:45;;;;;;;10.80;4.13;;;;;;;7.12;49.18;101881.56;5440222;32;34335;-62
2021/12/18 12:57:55;;;;;;;12.87;4.43;;;;;;;6.73;50.09;101881.56;5456537;32;34756;-63
2021/12/18 13:01:01;;;;;;;8.40;3.93;;;;;;;7.53;48.09;101871.00;5435750;32;33366;-63
2021/12/18 13:04:04;;;;;;;12.10;3.43;;;;;;;7.21;48.54;101869.34;5446117;32;34704;-63
2021/12/18 13:07:07;;;;;;;9.10;3.83;;;;;;;7.55;47.74;101851.81;5442253;32;34503;-62
2021/12/18 13:10:18;;;;;;;10.07;3.80;;;;;;;7.02;48.57;101850.19;5433842;32;32994;-64
2021/12/18 13:13:26;;;;;;;14.00;4.67;;;;;;;7.35;47.96;101834.44;5460232;32;33162;-64
2021/12/18 13:16:30;;;;;;;14.63;5.90;;;;;;;7.97;46.53;101836.78;5438939;32;34223;-63
2021/12/18 13:19:33;;;;;;;11.83;3.90;;;;;;;7.48;47.97;101836.16;5446662;32;33118;-63
2021/12/18 13:22:36;;;;;;;11.40;4.93;;;;;;;6.44;49.87;101850.22;5428324;32;33983;-62
2021/12/18 13:25:53;;;;;;;10.73;4.10;;;;;;;6.83;49.45;101852.81;5434802;32;34202;-63
2021/12/18 13:29:19;;;;;;;10.55;4.32;;;;;;;6.88;48.79;101869.34;5445780;32;34148;-63
2021/12/18 13:32:21;;;;;;;11.57;4.22;;;;;;;7.38;47.85;101860.59;5430795;32;34487;-62
2021/12/18 13:35:29;;;;;;;13.27;4.60;;;;;;;7.00;48.43;101856.28;5442956;32;34022;-62
2021/12/18 13:38:44;;;;;;;11.37;3.97;;;;;;;6.16;50.08;101849.25;5454828;32;34837;-64
2021/12/18 13:42:18;;;;;;;11.80;4.30;;;;;;;7.10;48.12;101844.09;5443476;32;34538;-62
2021/12/18 13:45:21;;;;;;;10.20;5.03;;;;;;;6.03;50.64;101844.00;5432613;32;33497;-62
2021/12/18 13:48:30;;;;;;;12.13;4.60;;;;;;;7.19;48.46;101842.31;5442767;32;34228;-63
2021/12/18 13:51:32;;;;;;;13.23;4.40;;;;;;;7.47;47.79;101840.53;5445652;32;33988;-63
2021/12/18 13:54:38;;;;;;;11.77;4.57;;;;;;;7.68;47.19;101836.94;5452948;32;34461;-62
2021/12/18 13:58:10;;;;;;;15.30;6.73;;;;;;;7.74;47.18;101822.97;5449276;32;35524;-62
2021/12/18 14:01:21;;;;;;;10.40;4.37;;;;;;;6.96;48.85;101829.31;5458495;32;34829;-64
2021/12/18 14:04:24;;;;;;;14.40;4.17;;;;;;;7.32;47.72;101820.50;5449895;32;34551;-64
2021/12/18 14:07:33;;;;;;;13.90;4.30;;;;;;;6.67;49.01;101831.03;5461950;32;34451;-63
2021/12/18 14:10:35;;;;;;;10.97;4.30;;;;;;;6.22;50.32;101832.75;5440194;32;35757;-62
2021/12/18 14:13:42;;;;;;;11.47;4.50;;;;;;;6.48;50.06;101836.25;5442031;32;34391;-62
2021/12/18 14:16:53;;;;;;;10.30;4.03;;;;;;;6.44;50.04;101829.31;5459337;32;34263;-64
2021/12/18 14:20:10;;;;;;;13.73;5.47;;;;;;;5.77;51.32;101839.53;5446059;32;34533;-64
2021/12/18 14:23:15;;;;;;;13.60;5.00;;;;;;;6.15;51.22;101831.00;5445471;32;34155;-62
2021/12/18 14:26:20;;;;;;;11.50;4.67;;;;;;;6.05;51.11;101817.03;5451305;32;33976;-62
2021/12/18 14:29:22;;;;;;;10.97;4.90;;;;;;;5.26;53.07;101812.34;5453251;32;35547;-63
2021/12/18 14:32:26;;;;;;;14.83;5.50;;;;;;;5.75;52.34;101809.13;5441308;32;34771;-62
2021/12/18 14:35:29;;;;;;;15.80;5.30;;;;;;;6.47;50.10;101817.97;5440104;32;34235;-63
2021/12/18 14:38:32;;;;;;;11.93;5.10;;;;;;;5.89;51.39;101810.03;5441553;32;33349;-63
2021/12/18 14:41:40;;;;;;;14.87;5.80;;;;;;;6.04;50.84;101804.00;5429722;32;34179;-63
2021/12/18 14:45:01;;;;;;;10.98;4.28;;;;;;;6.04;50.97;101806.59;5449021;32;34244;-62
2021/12/18 14:48:05;;;;;;;14.73;5.43;;;;;;;5.76;51.98;101800.41;5443378;32;36547;-63
2021/12/18 14:51:09;;;;;;;13.90;5.23;;;;;;;6.29;50.73;101803.16;5449722;32;34129;-63
2021/12/18 14:54:14;;;;;;;17.45;5.55;;;;;;;5.88;51.68;101805.66;5447542;32;34229;-62
2021/12/18 14:57:33;;;;;;;15.37;6.27;;;;;;;5.55;52.96;101796.00;5433892;32;34402;-62
2021/12/18 15:01:00;;;;;;;15.70;5.60;;;;;;;5.26;53.62;101788.91;5451205;32;34339;-64
2021/12/18 15:04:11;;;;;;;14.63;5.40;;;;;;;5.48;53.34;101796.84;5444754;32;35255;-63
2021/12/18 15:07:26;;;;;;;13.60;5.47;;;;;;;5.73;52.82;101793.44;5423671;32;34621;-63
2021/12/18 15:10:56;;;;;;;14.03;5.47;;;;;;;5.16;54.34;101782.78;5447840;32;34305;-64
2021/12/18 15:13:59;;;;;;;15.80;5.87;;;;;;;5.66;53.49;101786.44;5442586;32;34753;-63
2021/12/18 15:17:10;;;;;;;13.30;6.07;;;;;;;5.52;53.62;101782.94;5448772;32;34839;-63
2021/12/18 15:20:16;;;;;;;15.52;5.43;;;;;;;5.35;53.44;101778.53;5447637;32;33160;-64